createdAt,value
2023-03-26T00:01:26.629Z,97874.84
2023-03-26T00:04:38.662Z,97886.95
2023-03-26T00:07:52.016Z,97888.59
2023-03-26T00:11:03.978Z,97887.70
2023-03-26T00:14:17.860Z,97886.73
2023-03-26T00:17:30.670Z,97887.41
2023-03-26T00:20:43.093Z,97885.11
2023-03-26T00:23:55.438Z,97877.66
2023-03-26T00:27:09.252Z,97881.48
2023-03-26T00:30:22.735Z,97873.22
2023-03-26T00:33:38.273Z,97866.27
2023-03-26T00:36:53.270Z,97863.79
2023-03-26T00:40:08.138Z,97876.48
2023-03-26T00:43:23.004Z,97865.76
2023-03-26T00:46:37.520Z,97862.44
2023-03-26T00:49:51.068Z,97867.36
2023-03-26T00:53:03.486Z,97860.70
2023-03-26T00:56:17.455Z,97845.66
2023-03-26T00:59:30.603Z,97848.47
2023-03-26T01:02:43.852Z,97851.25
2023-03-26T01:06:02.425Z,97854.22
2023-03-26T01:09:21.710Z,97848.59
2023-03-26T01:12:37.192Z,97852.70
2023-03-26T01:15:53.581Z,97845.95
2023-03-26T01:19:08.826Z,97834.33
2023-03-26T01:22:26.508Z,97853.14
2023-03-26T01:25:43.319Z,97851.30
2023-03-26T01:28:58.854Z,97851.00
2023-03-26T01:32:21.608Z,97845.87
2023-03-26T01:35:44.811Z,97850.00
2023-03-26T01:39:03.712Z,97869.22
2023-03-26T01:42:19.782Z,97866.44
2023-03-26T01:45:36.813Z,97862.44
2023-03-26T01:48:51.702Z,97876.70
2023-03-26T01:52:04.866Z,97856.34
2023-03-26T01:55:18.365Z,97851.20
2023-03-26T01:58:39.288Z,97852.73
2023-03-26T02:01:57.567Z,97850.25
2023-03-26T02:05:16.358Z,97846.69
2023-03-26T02:08:35.844Z,97844.38
2023-03-26T02:11:50.185Z,97841.89
2023-03-26T02:15:05.162Z,97815.97
2023-03-26T02:18:17.384Z,97839.84
2023-03-26T02:21:34.361Z,97831.55
2023-03-26T02:24:47.118Z,97831.02
2023-03-26T02:28:00.465Z,97836.83
2023-03-26T02:31:14.040Z,97829.58
2023-03-26T02:34:26.422Z,97827.91
2023-03-26T02:37:39.725Z,97832.83
2023-03-26T02:40:56.876Z,97837.19
2023-03-26T02:44:11.919Z,97838.87
2023-03-26T02:47:43.716Z,97838.31
2023-03-26T02:51:04.184Z,97834.39
2023-03-26T02:54:20.665Z,97834.39
2023-03-26T02:57:33.237Z,97835.16
2023-03-26T03:00:59.687Z,97833.88
2023-03-26T03:04:18.182Z,97831.47
2023-03-26T03:07:31.127Z,97825.34
2023-03-26T03:10:45.096Z,97840.09
2023-03-26T03:14:02.192Z,97830.70
2023-03-26T03:17:15.774Z,97837.68
2023-03-26T03:20:30.091Z,97834.35
2023-03-26T03:23:42.750Z,97831.03
2023-03-26T03:26:58.303Z,97836.84
2023-03-26T03:30:22.305Z,97827.49
2023-03-26T03:33:43.388Z,97824.69
2023-03-26T03:36:56.038Z,97832.50
2023-03-26T03:40:16.377Z,97840.27
2023-03-26T03:43:29.278Z,97825.24
2023-03-26T03:46:44.682Z,97834.83
2023-03-26T03:49:57.113Z,97836.86
2023-03-26T03:53:09.949Z,97826.80
2023-03-26T03:56:24.467Z,97827.03
2023-03-26T03:59:47.919Z,97837.30
2023-03-26T04:02:59.694Z,97836.00
2023-03-26T04:06:16.797Z,97825.80
2023-03-26T04:09:29.581Z,97831.61
2023-03-26T04:12:43.534Z,97833.42
2023-03-26T04:15:57.890Z,97836.39
2023-03-26T04:19:10.839Z,97832.39
2023-03-26T04:22:23.869Z,97836.68
2023-03-26T04:25:39.764Z,97825.80
2023-03-26T04:28:59.967Z,97818.83
2023-03-26T04:32:18.869Z,97821.35
2023-03-26T04:35:33.601Z,97814.90
2023-03-26T04:38:52.337Z,97812.92
2023-03-26T04:42:06.392Z,97810.44
2023-03-26T04:45:23.909Z,97809.92
2023-03-26T04:48:38.925Z,97805.77
2023-03-26T04:51:53.828Z,97799.63
2023-03-26T04:55:25.829Z,97794.05
2023-03-26T04:58:40.099Z,97809.77
2023-03-26T05:01:53.119Z,97800.37
2023-03-26T05:05:07.186Z,97806.05
2023-03-26T05:08:19.974Z,97795.91
2023-03-26T05:11:33.216Z,97811.57
2023-03-26T05:14:46.037Z,97800.70
2023-03-26T05:18:00.093Z,97802.15
2023-03-26T05:21:17.535Z,97803.34
2023-03-26T05:24:30.232Z,97799.86
2023-03-26T05:27:43.056Z,97796.08
2023-03-26T05:30:55.926Z,97796.75
2023-03-26T05:34:09.626Z,97791.65
2023-03-26T05:37:23.894Z,97797.10
2023-03-26T05:40:38.150Z,97796.27
2023-03-26T05:43:52.162Z,97797.27
2023-03-26T05:47:06.343Z,97798.16
2023-03-26T05:50:19.990Z,97794.56
2023-03-26T05:53:33.954Z,97802.61
2023-03-26T05:57:01.860Z,97797.35
2023-03-26T06:00:34.091Z,97795.45
2023-03-26T06:03:48.181Z,97798.45
2023-03-26T06:07:02.491Z,97798.27
2023-03-26T06:10:18.558Z,97798.30
2023-03-26T06:13:31.807Z,97797.47
2023-03-26T06:16:44.770Z,97808.50
2023-03-26T06:19:59.125Z,97796.27
2023-03-26T06:23:13.247Z,97799.27
2023-03-26T06:26:33.859Z,97802.75
2023-03-26T06:29:48.395Z,97802.56
2023-03-26T06:33:19.380Z,97800.75
2023-03-26T06:36:33.569Z,97807.50
2023-03-26T06:39:46.289Z,97796.92
2023-03-26T06:43:08.549Z,97806.42
2023-03-26T06:46:36.571Z,97796.05
2023-03-26T06:50:03.345Z,97800.64
2023-03-26T06:53:26.655Z,97797.81
2023-03-26T06:56:41.356Z,97801.36
2023-03-26T07:00:05.888Z,97802.69
2023-03-26T07:03:33.211Z,97801.02
2023-03-26T07:07:00.313Z,97803.50
2023-03-26T07:10:32.213Z,97800.53
2023-03-26T07:13:49.541Z,97791.91
2023-03-26T07:17:20.495Z,97803.02
2023-03-26T07:20:42.658Z,97803.69
2023-03-26T07:23:57.808Z,97808.52
2023-03-26T07:27:49.012Z,97800.70
2023-03-26T07:31:15.200Z,97798.04
2023-03-26T07:34:56.789Z,97795.06
2023-03-26T07:38:43.768Z,97782.65
2023-03-26T07:42:23.621Z,97776.85
2023-03-26T07:45:50.884Z,97764.78
2023-03-26T07:49:18.251Z,97768.30
2023-03-26T07:52:34.560Z,97760.66
2023-03-26T07:56:02.060Z,97748.05
2023-03-26T07:59:35.799Z,97741.94
2023-03-26T08:03:39.508Z,97746.89
2023-03-26T08:07:17.933Z,97750.94
2023-03-26T08:10:57.278Z,97746.26
2023-03-26T08:14:24.834Z,97753.10
2023-03-26T08:17:43.824Z,97749.20
2023-03-26T08:21:00.548Z,97744.56
2023-03-26T08:24:22.509Z,97738.68
2023-03-26T08:27:42.093Z,97742.95
2023-03-26T08:30:55.856Z,97741.90
2023-03-26T08:34:08.524Z,97734.06
2023-03-26T08:37:21.701Z,97757.13
2023-03-26T08:41:00.894Z,97760.30
2023-03-26T08:44:51.756Z,97767.31
2023-03-26T08:48:52.204Z,97768.61
2023-03-26T08:52:43.571Z,97760.31
2023-03-26T08:56:02.261Z,97760.51
2023-03-26T08:59:45.885Z,97767.50
2023-03-26T09:03:39.176Z,97750.50
2023-03-26T09:07:38.138Z,97748.15
2023-03-26T09:11:15.412Z,97740.29
2023-03-26T09:15:18.717Z,97722.66
2023-03-26T09:19:08.219Z,97720.95
2023-03-26T09:22:55.343Z,97710.63
2023-03-26T09:26:29.973Z,97713.33
2023-03-26T09:30:22.133Z,97715.42
2023-03-26T09:34:00.532Z,97709.17
2023-03-26T09:37:25.850Z,97720.69
2023-03-26T09:40:48.161Z,97720.63
2023-03-26T09:44:47.621Z,97715.77
2023-03-26T09:48:36.200Z,97716.78
2023-03-26T09:52:14.291Z,97711.81
2023-03-26T09:55:54.062Z,97714.73
2023-03-26T09:59:48.749Z,97712.16
2023-03-26T10:03:32.838Z,97721.64
2023-03-26T10:06:54.621Z,97715.69
2023-03-26T10:10:12.275Z,97721.63
2023-03-26T10:13:35.231Z,97719.75
2023-03-26T10:16:58.266Z,97709.27
2023-03-26T10:20:35.680Z,97704.72
2023-03-26T10:24:01.271Z,97701.20
2023-03-26T10:27:35.440Z,97694.46
2023-03-26T10:31:19.936Z,97700.20
2023-03-26T10:34:52.080Z,97695.34
2023-03-26T10:38:14.061Z,97694.30
2023-03-26T10:41:33.672Z,97694.81
2023-03-26T10:45:02.989Z,97701.69
2023-03-26T10:48:53.460Z,97691.80
2023-03-26T10:52:09.594Z,97689.69
2023-03-26T10:55:29.511Z,97689.59
2023-03-26T10:58:49.672Z,97684.70
2023-03-26T11:02:06.074Z,97681.78
2023-03-26T11:05:41.642Z,97681.40
2023-03-26T11:08:59.167Z,97680.18
2023-03-26T11:12:26.145Z,97683.41
2023-03-26T11:15:38.527Z,97675.95
2023-03-26T11:18:55.947Z,97684.80
2023-03-26T11:22:16.657Z,97673.85
2023-03-26T11:25:53.819Z,97674.98
2023-03-26T11:29:44.865Z,97663.98
2023-03-26T11:33:01.600Z,97661.81
2023-03-26T11:36:19.889Z,97662.05
2023-03-26T11:39:36.836Z,97654.33
2023-03-26T11:42:48.451Z,97654.39
2023-03-26T11:46:00.819Z,97659.42
2023-03-26T11:49:16.676Z,97646.34
2023-03-26T11:52:29.987Z,97646.91
2023-03-26T11:55:42.855Z,97646.06
2023-03-26T11:59:01.385Z,97644.67
2023-03-26T12:02:34.507Z,97644.92
2023-03-26T12:05:54.794Z,97642.14
2023-03-26T12:09:07.263Z,97638.39
2023-03-26T12:12:19.738Z,97628.48
2023-03-26T12:15:33.636Z,97623.70
2023-03-26T12:18:46.741Z,97604.88
2023-03-26T12:21:59.971Z,97620.39
2023-03-26T12:25:27.656Z,97617.12
2023-03-26T12:28:41.468Z,97624.98
2023-03-26T12:32:11.587Z,97616.53
2023-03-26T12:35:30.512Z,97625.17
2023-03-26T12:38:46.180Z,97609.61
2023-03-26T12:44:51.172Z,97601.25
2023-03-26T12:45:22.352Z,97599.13
2023-03-26T12:48:34.786Z,97597.54
2023-03-26T12:51:52.683Z,97592.84
2023-03-26T12:55:13.498Z,97594.75
2023-03-26T12:58:39.848Z,97605.03
2023-03-26T13:02:03.250Z,97600.73
2023-03-26T13:05:39.036Z,97599.18
2023-03-26T13:09:15.817Z,97595.80
2023-03-26T13:12:41.698Z,97582.96
2023-03-26T13:15:58.277Z,97580.70
2023-03-26T13:19:17.682Z,97560.97
2023-03-26T13:22:36.326Z,97558.63
2023-03-26T13:25:55.862Z,97559.48
2023-03-26T13:29:13.640Z,97561.36
2023-03-26T13:32:32.757Z,97560.97
2023-03-26T13:35:51.085Z,97558.47
2023-03-26T13:39:14.356Z,97543.18
2023-03-26T13:42:49.711Z,97537.70
2023-03-26T13:46:11.997Z,97536.03
2023-03-26T13:49:33.171Z,97523.52
2023-03-26T13:52:52.381Z,97531.23
2023-03-26T13:56:06.062Z,97526.47
2023-03-26T13:59:23.930Z,97519.21
2023-03-26T14:02:42.208Z,97513.09
2023-03-26T14:05:58.751Z,97515.39
2023-03-26T14:09:18.720Z,97510.33
2023-03-26T14:12:46.671Z,97506.30
2023-03-26T14:16:03.785Z,97508.45
2023-03-26T14:19:32.235Z,97514.28
2023-03-26T14:22:54.260Z,97512.84
2023-03-26T14:26:37.601Z,97510.16
2023-03-26T14:30:01.592Z,97516.43
2023-03-26T14:33:28.337Z,97518.47
2023-03-26T14:37:10.721Z,97517.61
2023-03-26T14:40:57.502Z,97510.58
2023-03-26T14:44:47.606Z,97511.72
2023-03-26T14:48:09.724Z,97511.78
2023-03-26T14:51:32.633Z,97516.83
2023-03-26T14:54:49.296Z,97513.70
2023-03-26T14:58:42.139Z,97513.23
2023-03-26T15:02:22.629Z,97514.80
2023-03-26T15:06:25.595Z,97506.75
2023-03-26T15:10:43.341Z,97508.59
2023-03-26T15:14:12.342Z,97506.13
2023-03-26T15:18:24.446Z,97505.72
2023-03-26T15:22:23.444Z,97504.13
2023-03-26T15:26:42.109Z,97494.30
2023-03-26T15:30:35.437Z,97497.39
2023-03-26T15:34:28.444Z,97494.36
2023-03-26T15:38:25.301Z,97490.45
2023-03-26T15:41:44.009Z,97480.82
2023-03-26T15:45:06.321Z,97484.06
2023-03-26T15:49:06.021Z,97481.98
2023-03-26T15:52:30.680Z,97489.16
2023-03-26T15:55:48.947Z,97486.06
2023-03-26T15:59:26.117Z,97472.46
2023-03-26T16:17:14.521Z,97461.09
2023-03-26T16:21:31.867Z,97461.69
2023-03-26T16:25:27.143Z,97448.49
2023-03-26T16:29:29.277Z,97454.78
2023-03-26T16:33:21.948Z,97454.48
2023-03-26T16:37:13.937Z,97453.20
2023-03-26T16:41:16.137Z,97445.14
2023-03-26T16:45:10.566Z,97448.76
2023-03-26T16:49:09.961Z,97450.10
2023-03-26T16:53:03.257Z,97464.17
2023-03-26T16:57:01.750Z,97459.95
2023-03-26T17:00:59.267Z,97458.23
2023-03-26T17:04:41.854Z,97450.55
2023-03-26T17:08:17.249Z,97453.12
2023-03-26T17:11:40.283Z,97454.69
2023-03-26T17:31:35.654Z,97445.61
2023-03-26T17:35:07.665Z,97459.68
2023-03-26T17:39:08.867Z,97454.26
2023-03-26T17:42:33.098Z,97452.67
2023-03-26T17:52:36.556Z,97454.47
2023-03-26T17:56:15.429Z,97455.84
2023-03-26T17:59:41.870Z,97455.38
2023-03-26T18:03:05.976Z,97458.57
2023-03-26T18:06:23.422Z,97448.31
2023-03-26T18:09:50.312Z,97447.02
2023-03-26T18:13:44.807Z,97459.67
2023-03-26T18:17:00.510Z,97461.67
2023-03-26T18:20:25.900Z,97454.69
2023-03-26T18:23:45.321Z,97459.02
2023-03-26T18:27:03.148Z,97451.84
2023-03-26T18:30:26.449Z,97453.05
2023-03-26T18:33:48.043Z,97450.55
2023-03-26T18:37:19.893Z,97434.98
2023-03-26T18:40:37.703Z,97437.83
2023-03-26T18:43:50.615Z,97441.02
2023-03-26T18:47:03.589Z,97433.42
2023-03-26T18:50:26.429Z,97441.55
2023-03-26T18:53:42.286Z,97427.45
2023-03-26T18:56:58.919Z,97436.88
2023-03-26T19:00:26.301Z,97451.83
2023-03-26T19:03:43.959Z,97452.48
2023-03-26T19:06:57.721Z,97443.48
2023-03-26T19:10:12.007Z,97437.83
2023-03-26T19:13:27.300Z,97434.98
2023-03-26T19:16:43.398Z,97431.15
2023-03-26T19:19:57.684Z,97425.45
2023-03-26T19:23:10.691Z,97426.48
2023-03-26T19:26:23.626Z,97424.81
2023-03-26T19:29:38.524Z,97426.48
2023-03-26T19:33:12.175Z,97425.64
2023-03-26T19:36:24.501Z,97428.12
2023-03-26T19:39:47.321Z,97422.61
2023-03-26T19:43:00.543Z,97426.29
2023-03-26T19:46:17.364Z,97419.50
2023-03-26T19:49:42.126Z,97422.53
2023-03-26T19:53:09.031Z,97421.23
2023-03-26T19:56:22.494Z,97426.09
2023-03-26T19:59:35.520Z,97428.26
2023-03-26T20:02:49.497Z,97426.97
2023-03-26T20:06:02.885Z,97434.28
2023-03-26T20:09:16.958Z,97436.36
2023-03-26T20:12:29.848Z,97440.80
2023-03-26T20:15:43.466Z,97445.52
2023-03-26T20:18:57.490Z,97442.58
2023-03-26T20:22:10.655Z,97439.80
2023-03-26T20:25:30.247Z,97444.21
2023-03-26T20:28:48.172Z,97433.21
2023-03-26T20:31:58.166Z,97444.48
2023-03-26T20:35:20.265Z,97446.52
2023-03-26T20:38:39.458Z,97438.89
2023-03-26T20:41:52.752Z,97441.39
2023-03-26T20:45:05.211Z,97435.43
2023-03-26T20:48:17.821Z,97428.67
2023-03-26T20:51:30.193Z,97423.70
2023-03-26T20:54:42.449Z,97417.08
2023-03-26T20:57:55.401Z,97420.09
2023-03-26T21:01:09.551Z,97415.47
2023-03-26T21:04:23.573Z,97408.02
2023-03-26T21:07:36.005Z,97394.11
2023-03-26T21:10:51.251Z,97391.31
2023-03-26T21:14:11.058Z,97390.70
2023-03-26T21:17:28.432Z,97379.09
2023-03-26T21:20:43.369Z,97383.08
2023-03-26T21:24:00.417Z,97388.56
2023-03-26T21:27:15.289Z,97375.20
2023-03-26T21:30:29.814Z,97367.94
2023-03-26T21:33:42.867Z,97373.24
2023-03-26T21:36:57.086Z,97367.98
2023-03-26T21:40:17.130Z,97366.47
2023-03-26T21:43:31.523Z,97358.37
2023-03-26T21:46:47.934Z,97349.45
2023-03-26T21:50:02.115Z,97353.73
2023-03-26T21:53:18.192Z,97370.45
2023-03-26T21:56:41.575Z,97380.21
2023-03-26T22:00:00.712Z,97382.86
2023-03-26T22:03:22.309Z,97393.76
2023-03-26T22:06:43.054Z,97395.92
2023-03-26T22:09:57.116Z,97393.45
2023-03-26T22:13:09.273Z,97385.02
2023-03-26T22:16:23.580Z,97375.94
2023-03-26T22:19:36.128Z,97372.28
2023-03-26T22:22:50.131Z,97377.41
2023-03-26T22:26:02.530Z,97368.80
2023-03-26T22:29:15.312Z,97368.31
2023-03-26T22:32:32.746Z,97354.91
2023-03-26T22:35:43.197Z,97351.46
2023-03-26T22:38:58.289Z,97356.41
2023-03-26T22:42:10.682Z,97358.91
2023-03-26T22:45:23.722Z,97361.04
2023-03-26T22:48:37.611Z,97352.78
2023-03-26T22:51:50.310Z,97354.42
2023-03-26T22:55:03.245Z,97351.28
2023-03-26T22:58:15.473Z,97339.89
2023-03-26T23:01:30.432Z,97333.59
2023-03-26T23:04:42.871Z,97329.31
2023-03-26T23:07:56.273Z,97306.47
2023-03-26T23:11:14.225Z,97320.70
2023-03-26T23:14:26.634Z,97310.13
2023-03-26T23:17:40.956Z,97307.97
2023-03-26T23:20:59.740Z,97304.14
2023-03-26T23:24:13.287Z,97300.20
2023-03-26T23:27:25.612Z,97293.25
2023-03-26T23:30:37.858Z,97300.52
2023-03-26T23:33:50.593Z,97305.11
2023-03-26T23:37:03.209Z,97298.84
2023-03-26T23:40:19.069Z,97294.88
2023-03-26T23:43:32.969Z,97294.53
2023-03-26T23:46:45.834Z,97281.14
2023-03-26T23:49:58.381Z,97273.72
2023-03-26T23:53:11.135Z,97274.03
2023-03-26T23:56:24.068Z,97273.19
2023-03-26T23:59:36.719Z,97263.80
